Time;durP1;ratioP1;P1;durP2;ratioP2;P2;SDS_P1;SDS_P2;PMS_P1;PMS_P2;Temp;Humidity;BMP_temperature;BMP_pressure;BME280_temperature;BME280_humidity;BME280_pressure;Samples;Min_cycle;Max_cycle;Signal;HPM_P1;HPM_P2
2021/06/29 00:00:27;;;;;;;5.47;3.70;;;;;;;;;;4992076;28;20037;-76
2021/06/29 00:03:06;;;;;;;6.53;3.88;;;;;;;;;;4993072;28;20030;-77
2021/06/29 00:05:34;;;;;;;6.55;4.03;;;;;;;;;;4992591;28;20141;-77
2021/06/29 00:08:02;;;;;;;4.90;3.90;;;;;;;;;;4993023;28;20499;-77
2021/06/29 00:10:28;;;;;;;8.60;4.13;;;;;;;;;;4992248;28;20031;-77
2021/06/29 00:12:54;;;;;;;7.55;4.70;;;;;;;;;;4992802;28;20109;-77
2021/06/29 00:15:22;;;;;;;8.50;4.30;;;;;;;;;;4993733;28;20077;-77
2021/06/29 00:17:48;;;;;;;8.73;4.80;;;;;;;;;;4993644;28;20106;-77
2021/06/29 00:20:14;;;;;;;7.78;4.47;;;;;;;;;;4992955;28;20027;-78
2021/06/29 00:22:41;;;;;;;6.55;4.50;;;;;;;;;;4993741;28;20034;-78
2021/06/29 00:25:07;;;;;;;8.50;4.30;;;;;;;;;;4991732;28;20125;-78
2021/06/29 00:27:33;;;;;;;7.85;4.60;;;;;;;;;;4991901;28;20037;-78
2021/06/29 00:29:59;;;;;;;9.23;4.57;;;;;;;;;;5007513;28;20113;-77
2021/06/29 00:32:25;;;;;;;6.85;4.65;;;;;;;;;;4993012;28;20038;-77
2021/06/29 00:34:51;;;;;;;8.52;4.72;;;;;;;;;;4993022;28;20053;-77
2021/06/29 00:37:17;;;;;;;7.38;4.60;;;;;;;;;;4993133;28;20030;-77
2021/06/29 00:39:43;;;;;;;9.82;5.10;;;;;;;;;;4992722;28;20025;-77
2021/06/29 00:42:09;;;;;;;6.85;4.30;;;;;;;;;;4993377;28;20033;-77
2021/06/29 00:44:35;;;;;;;6.28;4.90;;;;;;;;;;4991604;28;20062;-77
2021/06/29 00:47:01;;;;;;;7.53;4.78;;;;;;;;;;4994648;28;20043;-77
2021/06/29 00:49:27;;;;;;;9.25;4.85;;;;;;;;;;4975011;28;20074;-76
2021/06/29 00:51:53;;;;;;;7.60;4.88;;;;;;;;;;4973924;28;20106;-77
2021/06/29 00:54:20;;;;;;;9.10;4.53;;;;;;;;;;4981710;28;20030;-77
2021/06/29 00:56:46;;;;;;;8.05;4.85;;;;;;;;;;4992122;28;20073;-77
2021/06/29 00:59:12;;;;;;;5.05;4.50;;;;;;;;;;4992395;28;20038;-77
2021/06/29 01:01:38;;;;;;;5.65;4.63;;;;;;;;;;4991138;28;20026;-77
2021/06/29 01:04:06;;;;;;;5.45;3.90;;;;;;;;;;4993278;28;20026;-78
2021/06/29 01:06:33;;;;;;;5.18;3.90;;;;;;;;;;4994298;28;20035;-78
2021/06/29 01:08:59;;;;;;;7.15;4.28;;;;;;;;;;4993483;28;20026;-78
2021/06/29 01:11:25;;;;;;;5.30;3.83;;;;;;;;;;4993668;28;20507;-78
2021/06/29 01:13:51;;;;;;;6.63;4.15;;;;;;;;;;4993541;28;20041;-78
2021/06/29 01:16:17;;;;;;;7.35;4.18;;;;;;;;;;4993952;28;20033;-78
2021/06/29 01:18:44;;;;;;;5.57;4.30;;;;;;;;;;4989286;28;20023;-78
2021/06/29 01:21:14;;;;;;;8.60;4.60;;;;;;;;;;4988108;28;20023;-78
2021/06/29 01:23:43;;;;;;;11.57;4.88;;;;;;;;;;4993755;28;20031;-79
2021/06/29 01:26:30;;;;;;;7.40;5.28;;;;;;;;;;4993295;28;20029;-78
2021/06/29 01:29:04;;;;;;;8.45;4.90;;;;;;;;;;4985717;28;20491;-78
2021/06/29 01:31:31;;;;;;;6.43;4.80;;;;;;;;;;4984599;28;20034;-79
2021/06/29 01:33:57;;;;;;;7.78;4.72;;;;;;;;;;4994074;28;20046;-78
2021/06/29 01:36:24;;;;;;;7.93;4.18;;;;;;;;;;4993886;28;20062;-79
2021/06/29 01:38:51;;;;;;;4.93;4.20;;;;;;;;;;4993904;28;20438;-79
2021/06/29 01:41:21;;;;;;;5.75;4.35;;;;;;;;;;4993125;28;20120;-79
2021/06/29 01:46:14;;;;;;;8.60;4.05;;;;;;;;;;4987466;28;20038;-78
2021/06/29 01:48:51;;;;;;;7.10;3.95;;;;;;;;;;4978997;28;20030;-76
2021/06/29 01:51:18;;;;;;;7.55;4.25;;;;;;;;;;4980796;28;20027;-78
2021/06/29 01:53:46;;;;;;;5.13;4.00;;;;;;;;;;4978762;28;20050;-79
2021/06/29 01:56:16;;;;;;;5.90;4.13;;;;;;;;;;4995567;28;20387;-78
2021/06/29 01:58:53;;;;;;;7.90;3.95;;;;;;;;;;4992069;28;20019;-79
2021/06/29 02:01:19;;;;;;;7.95;4.32;;;;;;;;;;4980971;28;20109;-79
2021/06/29 02:03:45;;;;;;;5.93;4.55;;;;;;;;;;4995523;28;20075;-79
2021/06/29 02:06:11;;;;;;;6.18;4.47;;;;;;;;;;4996291;28;20027;-77
2021/06/29 02:08:38;;;;;;;9.48;4.50;;;;;;;;;;5013171;28;20515;-78
2021/06/29 02:11:04;;;;;;;7.30;4.60;;;;;;;;;;4996414;28;20054;-78
2021/06/29 02:13:30;;;;;;;8.60;4.55;;;;;;;;;;4995518;28;20037;-78
2021/06/29 02:15:56;;;;;;;5.40;4.20;;;;;;;;;;4995649;28;20026;-79
2021/06/29 02:18:23;;;;;;;9.57;4.55;;;;;;;;;;4996513;28;20439;-78
2021/06/29 02:20:49;;;;;;;4.95;4.40;;;;;;;;;;5011185;28;20069;-78
2021/06/29 02:23:15;;;;;;;7.63;4.50;;;;;;;;;;4996499;28;20030;-78
2021/06/29 02:25:41;;;;;;;7.40;5.20;;;;;;;;;;4996053;28;20509;-78
2021/06/29 02:28:07;;;;;;;7.57;4.85;;;;;;;;;;4995849;28;20030;-79
2021/06/29 02:30:34;;;;;;;6.43;4.97;;;;;;;;;;4994310;28;20038;-79
2021/06/29 02:33:00;;;;;;;8.00;5.82;;;;;;;;;;4995505;28;20034;-79
2021/06/29 02:35:26;;;;;;;8.50;5.55;;;;;;;;;;5011395;28;20023;-78
2021/06/29 02:37:52;;;;;;;6.03;5.40;;;;;;;;;;4994490;28;20122;-78
2021/06/29 02:40:18;;;;;;;6.25;5.25;;;;;;;;;;4995681;28;20117;-78
2021/06/29 02:42:44;;;;;;;8.70;4.75;;;;;;;;;;4976823;28;20023;-78
2021/06/29 02:45:16;;;;;;;7.13;5.78;;;;;;;;;;4976574;28;20031;-79
2021/06/29 02:47:42;;;;;;;6.03;5.03;;;;;;;;;;4990477;28;20116;-79
2021/06/29 02:50:09;;;;;;;11.93;5.70;;;;;;;;;;4994868;28;20045;-77
2021/06/29 02:52:36;;;;;;;7.88;5.60;;;;;;;;;;4994751;28;20107;-76
2021/06/29 02:55:03;;;;;;;8.32;5.15;;;;;;;;;;4994513;28;20033;-76
2021/06/29 02:57:29;;;;;;;7.47;4.65;;;;;;;;;;4995460;28;20026;-76
2021/06/29 02:59:55;;;;;;;4.97;4.35;;;;;;;;;;4993676;28;20034;-77
2021/06/29 03:02:21;;;;;;;8.75;4.70;;;;;;;;;;4994424;28;20110;-76
2021/06/29 03:04:47;;;;;;;7.22;3.95;;;;;;;;;;4995607;28;20027;-76
2021/06/29 03:07:13;;;;;;;5.25;3.30;;;;;;;;;;4996628;28;20033;-75
2021/06/29 03:09:39;;;;;;;4.45;3.03;;;;;;;;;;4993878;28;20030;-75
2021/06/29 03:12:06;;;;;;;4.40;3.15;;;;;;;;;;4995440;28;20038;-76
2021/06/29 03:14:35;;;;;;;4.95;3.00;;;;;;;;;;5003961;28;20065;-77
2021/06/29 03:17:02;;;;;;;3.50;2.65;;;;;;;;;;5004106;28;20062;-77
2021/06/29 03:19:28;;;;;;;7.03;2.67;;;;;;;;;;4993258;28;20034;-77
2021/06/29 03:21:54;;;;;;;2.55;2.08;;;;;;;;;;4994610;28;20022;-77
2021/06/29 03:24:20;;;;;;;4.68;2.40;;;;;;;;;;4994646;28;20426;-77
2021/06/29 03:26:46;;;;;;;5.05;2.40;;;;;;;;;;4994552;28;20053;-76
2021/06/29 03:29:12;;;;;;;4.45;1.90;;;;;;;;;;5009105;28;20501;-77
2021/06/29 03:31:38;;;;;;;3.55;2.15;;;;;;;;;;4995009;28;20041;-77
2021/06/29 03:34:04;;;;;;;5.50;2.53;;;;;;;;;;4994909;28;20028;-77
2021/06/29 03:36:31;;;;;;;2.90;2.00;;;;;;;;;;4993658;28;20105;-76
2021/06/29 03:38:57;;;;;;;5.68;2.45;;;;;;;;;;4993456;28;20042;-76
2021/06/29 03:41:23;;;;;;;2.65;1.90;;;;;;;;;;4993800;28;20030;-76
2021/06/29 03:43:49;;;;;;;4.93;2.20;;;;;;;;;;5003364;28;20027;-77
2021/06/29 03:46:15;;;;;;;4.15;2.38;;;;;;;;;;4992662;28;20049;-77
2021/06/29 03:48:41;;;;;;;9.98;3.30;;;;;;;;;;4993419;28;20491;-77
2021/06/29 03:51:07;;;;;;;3.75;2.60;;;;;;;;;;4993452;28;20034;-77
2021/06/29 03:53:33;;;;;;;3.10;2.60;;;;;;;;;;4992240;28;20113;-77
2021/06/29 03:55:59;;;;;;;3.25;2.58;;;;;;;;;;4993493;28;20031;-77
2021/06/29 03:58:25;;;;;;;4.90;2.95;;;;;;;;;;4993036;28;20034;-77
2021/06/29 04:00:51;;;;;;;6.35;3.25;;;;;;;;;;4992917;28;20450;-77
2021/06/29 04:03:17;;;;;;;6.03;3.42;;;;;;;;;;4993153;28;20027;-77
2021/06/29 04:05:43;;;;;;;6.43;4.35;;;;;;;;;;4992736;28;20069;-78
2021/06/29 04:08:09;;;;;;;4.25;2.58;;;;;;;;;;4994368;28;20506;-77
2021/06/29 04:10:35;;;;;;;4.55;3.20;;;;;;;;;;4992689;28;20030;-78
2021/06/29 04:13:01;;;;;;;5.07;3.10;;;;;;;;;;4992629;28;20039;-77
2021/06/29 04:15:27;;;;;;;4.65;3.25;;;;;;;;;;4994805;28;20115;-78
2021/06/29 04:17:53;;;;;;;6.95;3.33;;;;;;;;;;4973204;28;20023;-77
2021/06/29 04:20:19;;;;;;;10.18;2.97;;;;;;;;;;4980745;28;20023;-78
2021/06/29 04:22:45;;;;;;;9.32;4.22;;;;;;;;;;4993367;28;20026;-78
2021/06/29 04:25:12;;;;;;;5.00;3.30;;;;;;;;;;4994578;28;20466;-78
2021/06/29 04:27:38;;;;;;;6.72;3.42;;;;;;;;;;4993061;28;20400;-77
2021/06/29 04:30:05;;;;;;;9.95;3.70;;;;;;;;;;4992175;28;20054;-76
2021/06/29 04:32:31;;;;;;;7.15;3.40;;;;;;;;;;4991035;28;20045;-76
2021/06/29 04:34:57;;;;;;;8.55;3.28;;;;;;;;;;4991699;28;20026;-76
2021/06/29 04:37:23;;;;;;;5.15;3.33;;;;;;;;;;4983159;28;20022;-76
2021/06/29 04:39:49;;;;;;;7.65;3.20;;;;;;;;;;4989857;28;20092;-76
2021/06/29 04:42:15;;;;;;;5.00;3.50;;;;;;;;;;4991950;28;20554;-76
2021/06/29 04:44:42;;;;;;;5.82;2.88;;;;;;;;;;4974231;28;20026;-76
2021/06/29 04:47:08;;;;;;;4.93;3.10;;;;;;;;;;5268744;23;20046;-74
2021/06/29 04:49:35;;;;;;;3.70;3.17;;;;;;;;;;4972138;28;20089;-76
2021/06/29 04:52:01;;;;;;;4.88;2.67;;;;;;;;;;4980432;28;20538;-75
2021/06/29 04:54:27;;;;;;;5.78;2.53;;;;;;;;;;4981934;28;20031;-76
2021/06/29 04:56:53;;;;;;;3.58;2.42;;;;;;;;;;4973191;28;20027;-76
2021/06/29 04:59:19;;;;;;;3.75;3.03;;;;;;;;;;4983216;28;20022;-78
2021/06/29 05:01:45;;;;;;;8.38;2.25;;;;;;;;;;4994698;28;20026;-76
2021/06/29 05:04:11;;;;;;;2.55;2.17;;;;;;;;;;5010000;28;20395;-76
2021/06/29 05:06:37;;;;;;;4.78;2.25;;;;;;;;;;4993016;28;20034;-76
2021/06/29 05:09:03;;;;;;;3.85;2.20;;;;;;;;;;4992761;28;20585;-76
2021/06/29 05:11:29;;;;;;;5.13;2.10;;;;;;;;;;4992074;28;20437;-76
2021/06/29 05:13:55;;;;;;;3.67;2.20;;;;;;;;;;4986952;28;20037;-76
2021/06/29 05:16:21;;;;;;;5.28;2.25;;;;;;;;;;4972553;28;20031;-77
2021/06/29 05:18:47;;;;;;;3.05;2.40;;;;;;;;;;4979889;28;20022;-77
2021/06/29 05:21:13;;;;;;;6.60;2.80;;;;;;;;;;4992483;28;20084;-77
2021/06/29 05:23:39;;;;;;;6.95;2.60;;;;;;;;;;4993524;28;20453;-77
2021/06/29 05:26:05;;;;;;;6.30;2.85;;;;;;;;;;4973255;28;20026;-77
2021/06/29 05:28:31;;;;;;;7.28;2.95;;;;;;;;;;4970928;28;20407;-77
2021/06/29 05:30:57;;;;;;;4.53;3.13;;;;;;;;;;5005197;28;20033;-77
2021/06/29 05:33:23;;;;;;;5.78;2.25;;;;;;;;;;5006373;28;20030;-76
2021/06/29 05:35:49;;;;;;;4.47;2.58;;;;;;;;;;4993513;28;20026;-76
2021/06/29 05:38:15;;;;;;;5.55;3.03;;;;;;;;;;4995248;28;20033;-77
2021/06/29 05:40:41;;;;;;;7.03;2.80;;;;;;;;;;4988999;28;20471;-76
2021/06/29 05:43:07;;;;;;;5.68;2.58;;;;;;;;;;4993800;28;20034;-76
2021/06/29 05:45:33;;;;;;;10.65;3.42;;;;;;;;;;4993072;28;20527;-76
2021/06/29 05:47:59;;;;;;;4.50;2.60;;;;;;;;;;4990670;28;20041;-76
2021/06/29 05:50:26;;;;;;;4.65;2.42;;;;;;;;;;4991155;28;20026;-76
2021/06/29 05:52:53;;;;;;;5.07;2.42;;;;;;;;;;4989563;28;20034;-75
2021/06/29 05:55:19;;;;;;;4.47;2.20;;;;;;;;;;4990258;28;20029;-75
2021/06/29 05:57:45;;;;;;;5.43;2.30;;;;;;;;;;4991747;28;20100;-76
2021/06/29 06:00:13;;;;;;;5.22;2.13;;;;;;;;;;4985332;28;20070;-76
2021/06/29 06:02:39;;;;;;;4.28;2.33;;;;;;;;;;4986165;28;20027;-76
2021/06/29 06:05:09;;;;;;;6.10;2.15;;;;;;;;;;4975043;28;20026;-75
2021/06/29 06:07:35;;;;;;;3.58;2.10;;;;;;;;;;4985831;28;20030;-76
2021/06/29 06:10:01;;;;;;;2.53;1.80;;;;;;;;;;4988244;28;20096;-76
2021/06/29 06:12:27;;;;;;;4.57;1.90;;;;;;;;;;4990922;28;20044;-76
2021/06/29 06:14:55;;;;;;;4.93;2.65;;;;;;;;;;5001885;28;20031;-75
2021/06/29 06:17:21;;;;;;;3.50;1.70;;;;;;;;;;4993226;28;20018;-76
2021/06/29 06:19:47;;;;;;;5.75;2.00;;;;;;;;;;4992590;28;20057;-75
2021/06/29 06:22:14;;;;;;;2.95;1.70;;;;;;;;;;4994787;28;20041;-76
2021/06/29 06:24:40;;;;;;;5.32;1.60;;;;;;;;;;4994214;28;20026;-76
2021/06/29 06:27:12;;;;;;;2.22;1.60;;;;;;;;;;4993105;28;20102;-76
2021/06/29 06:29:38;;;;;;;4.47;1.80;;;;;;;;;;4993835;28;20026;-76
2021/06/29 06:32:05;;;;;;;3.05;1.70;;;;;;;;;;4994289;28;20093;-76
2021/06/29 06:34:31;;;;;;;3.08;1.80;;;;;;;;;;4989408;28;20038;-76
2021/06/29 06:36:57;;;;;;;4.13;1.77;;;;;;;;;;4993415;28;20492;-76
2021/06/29 06:39:23;;;;;;;3.58;1.45;;;;;;;;;;4993213;28;20484;-76
2021/06/29 06:41:49;;;;;;;5.78;1.88;;;;;;;;;;4993568;28;20061;-76
2021/06/29 06:44:15;;;;;;;4.70;2.00;;;;;;;;;;4994088;28;20026;-76
2021/06/29 06:46:41;;;;;;;3.72;1.73;;;;;;;;;;4994057;28;20030;-76
2021/06/29 06:49:07;;;;;;;2.25;1.70;;;;;;;;;;4993562;28;20113;-76
2021/06/29 06:51:33;;;;;;;3.95;1.60;;;;;;;;;;4993761;28;20118;-76
2021/06/29 06:53:59;;;;;;;5.20;1.63;;;;;;;;;;4993938;28;20472;-76
2021/06/29 06:56:25;;;;;;;2.70;1.70;;;;;;;;;;4992926;28;20435;-76
2021/06/29 06:58:51;;;;;;;6.57;2.00;;;;;;;;;;4988515;28;20046;-76
2021/06/29 07:01:17;;;;;;;3.97;2.08;;;;;;;;;;4974341;28;20122;-76
2021/06/29 07:03:44;;;;;;;6.90;1.80;;;;;;;;;;4975179;28;20543;-76
2021/06/29 07:06:12;;;;;;;4.53;1.88;;;;;;;;;;4992941;28;20065;-76
2021/06/29 07:08:38;;;;;;;5.50;1.65;;;;;;;;;;4993344;28;20085;-77
2021/06/29 07:11:04;;;;;;;2.42;1.60;;;;;;;;;;4993313;28;20486;-77
2021/06/29 07:13:30;;;;;;;5.40;1.70;;;;;;;;;;4988561;28;20505;-77
2021/06/29 07:15:56;;;;;;;4.80;1.98;;;;;;;;;;4992336;28;20026;-77
2021/06/29 07:18:22;;;;;;;2.88;1.52;;;;;;;;;;4987979;28;20057;-76
2021/06/29 07:20:49;;;;;;;1.88;1.50;;;;;;;;;;4995446;28;20030;-77
2021/06/29 07:23:15;;;;;;;2.72;1.73;;;;;;;;;;4999300;28;20022;-78
2021/06/29 07:25:42;;;;;;;4.28;1.90;;;;;;;;;;4999146;28;20039;-77
2021/06/29 07:28:08;;;;;;;5.55;1.95;;;;;;;;;;5003393;28;20052;-77
2021/06/29 07:30:34;;;;;;;3.88;1.67;;;;;;;;;;5008399;28;20034;-77
2021/06/29 07:33:01;;;;;;;3.20;1.92;;;;;;;;;;5008164;28;20037;-77
2021/06/29 07:35:28;;;;;;;3.65;1.73;;;;;;;;;;4999887;28;20061;-78
2021/06/29 07:37:54;;;;;;;4.57;1.48;;;;;;;;;;4994708;28;20030;-79
2021/06/29 07:40:20;;;;;;;2.55;1.65;;;;;;;;;;4993517;28;20510;-77
2021/06/29 07:42:46;;;;;;;2.83;1.52;;;;;;;;;;4993559;28;20034;-78
2021/06/29 07:45:13;;;;;;;2.97;1.70;;;;;;;;;;4975037;28;20071;-79
2021/06/29 07:47:39;;;;;;;4.72;1.70;;;;;;;;;;4992772;28;20034;-78
2021/06/29 07:50:07;;;;;;;4.90;1.48;;;;;;;;;;4977345;28;20043;-78
2021/06/29 07:52:33;;;;;;;3.17;1.70;;;;;;;;;;4974406;28;20033;-78
2021/06/29 07:54:59;;;;;;;2.92;1.60;;;;;;;;;;4989305;28;20224;-78
2021/06/29 07:57:25;;;;;;;5.13;1.50;;;;;;;;;;4994893;28;20479;-78
2021/06/29 07:59:51;;;;;;;3.40;2.03;;;;;;;;;;4982594;28;20054;-78
2021/06/29 08:02:17;;;;;;;1.40;1.30;;;;;;;;;;4993583;28;20105;-79
2021/06/29 08:04:43;;;;;;;2.67;1.33;;;;;;;;;;4994404;28;20109;-79
2021/06/29 08:07:10;;;;;;;3.35;1.42;;;;;;;;;;4993493;28;20022;-78
2021/06/29 08:09:36;;;;;;;1.83;1.23;;;;;;;;;;4992370;28;20076;-78
2021/06/29 08:12:02;;;;;;;3.75;1.30;;;;;;;;;;4994287;28;20482;-81
2021/06/29 08:14:28;;;;;;;2.10;1.30;;;;;;;;;;5017556;28;20054;-79
2021/06/29 08:16:54;;;;;;;4.70;1.17;;;;;;;;;;5002444;28;20030;-78
2021/06/29 08:19:20;;;;;;;2.40;1.30;;;;;;;;;;4995504;28;20073;-78
2021/06/29 08:21:46;;;;;;;2.63;1.17;;;;;;;;;;4976021;28;20042;-78
2021/06/29 08:24:12;;;;;;;2.42;1.52;;;;;;;;;;4981768;28;20101;-76
2021/06/29 08:26:38;;;;;;;1.95;1.33;;;;;;;;;;4972979;28;20031;-77
2021/06/29 08:29:04;;;;;;;3.83;1.50;;;;;;;;;;4994589;28;20031;-77
2021/06/29 08:31:31;;;;;;;1.60;0.90;;;;;;;;;;4976783;28;20125;-77
2021/06/29 08:33:57;;;;;;;1.67;1.10;;;;;;;;;;4992236;28;20053;-76
2021/06/29 08:36:23;;;;;;;2.88;1.13;;;;;;;;;;4991780;28;20031;-77
2021/06/29 08:38:50;;;;;;;1.52;1.00;;;;;;;;;;4987362;28;20039;-76
2021/06/29 08:41:16;;;;;;;3.30;1.08;;;;;;;;;;4972547;28;20105;-76
2021/06/29 08:43:42;;;;;;;2.60;0.85;;;;;;;;;;4980436;28;20080;-76
2021/06/29 08:46:10;;;;;;;2.53;1.10;;;;;;;;;;4976478;28;20077;-75
2021/06/29 08:48:37;;;;;;;3.88;1.17;;;;;;;;;;4991820;28;20100;-75
2021/06/29 08:51:07;;;;;;;1.95;1.00;;;;;;;;;;4991539;28;20086;-75
2021/06/29 08:53:34;;;;;;;1.27;1.02;;;;;;;;;;4991730;28;20546;-75
2021/06/29 08:56:01;;;;;;;3.05;1.08;;;;;;;;;;4992080;28;20033;-75
2021/06/29 08:58:28;;;;;;;1.60;0.88;;;;;;;;;;4991669;28;20065;-75
2021/06/29 09:00:54;;;;;;;1.10;0.80;;;;;;;;;;4984826;28;20561;-75
2021/06/29 09:03:21;;;;;;;2.88;1.40;;;;;;;;;;4991054;28;20212;-75
2021/06/29 09:05:51;;;;;;;1.38;0.90;;;;;;;;;;4995094;28;20041;-75
2021/06/29 09:08:18;;;;;;;3.47;1.20;;;;;;;;;;4995670;28;20045;-75
2021/06/29 09:11:03;;;;;;;4.22;1.13;;;;;;;;;;4992187;28;20030;-75
2021/06/29 09:13:30;;;;;;;1.42;1.00;;;;;;;;;;4992108;28;20034;-75
2021/06/29 09:15:56;;;;;;;1.90;0.90;;;;;;;;;;4991452;28;20368;-76
2021/06/29 09:18:23;;;;;;;2.58;1.30;;;;;;;;;;4990665;28;20105;-75
2021/06/29 09:21:01;;;;;;;1.77;1.00;;;;;;;;;;4981172;28;20054;-75
2021/06/29 09:23:29;;;;;;;1.15;0.98;;;;;;;;;;4991679;28;20030;-75
2021/06/29 09:25:57;;;;;;;2.30;1.10;;;;;;;;;;4991661;28;20025;-76
2021/06/29 09:28:24;;;;;;;2.13;1.00;;;;;;;;;;4990283;28;20498;-76
2021/06/29 09:30:52;;;;;;;2.58;1.23;;;;;;;;;;4992081;28;20026;-74
2021/06/29 09:33:23;;;;;;;2.05;1.05;;;;;;;;;;4993898;28;20037;-74
2021/06/29 09:35:51;;;;;;;2.58;1.10;;;;;;;;;;4983487;28;20018;-76
2021/06/29 09:38:22;;;;;;;2.70;1.15;;;;;;;;;;4993776;28;20034;-76
2021/06/29 09:40:53;;;;;;;3.07;1.20;;;;;;;;;;4994478;28;20033;-76
2021/06/29 09:43:20;;;;;;;1.93;1.27;;;;;;;;;;4994781;28;20029;-76
2021/06/29 09:45:48;;;;;;;2.88;0.90;;;;;;;;;;4993335;28;20345;-76
2021/06/29 09:48:15;;;;;;;2.75;0.90;;;;;;;;;;4994850;28;20031;-76
2021/06/29 09:50:46;;;;;;;3.10;0.90;;;;;;;;;;4993660;28;20458;-76
2021/06/29 09:53:12;;;;;;;2.88;1.00;;;;;;;;;;4994530;28;20034;-76
2021/06/29 09:55:42;;;;;;;1.08;0.98;;;;;;;;;;4994967;28;20093;-76
2021/06/29 09:58:09;;;;;;;2.88;1.08;;;;;;;;;;4994915;28;20019;-76
2021/06/29 10:00:42;;;;;;;6.80;3.65;;;;;;;;;;4984149;28;20072;-76
2021/06/29 10:03:35;;;;;;;3.38;1.20;;;;;;;;;;4988235;28;20030;-76
2021/06/29 10:06:10;;;;;;;2.03;1.10;;;;;;;;;;4979253;28;20093;-76
2021/06/29 10:08:37;;;;;;;5.00;1.50;;;;;;;;;;4990597;28;20509;-76
2021/06/29 10:11:20;;;;;;;1.77;1.05;;;;;;;;;;4991057;28;20033;-76
2021/06/29 10:13:59;;;;;;;1.52;1.00;;;;;;;;;;4990087;28;21016;-76
2021/06/29 10:16:26;;;;;;;1.95;0.90;;;;;;;;;;4985034;28;20022;-76
2021/06/29 10:21:23;;;;;;;3.33;1.10;;;;;;;;;;4990344;28;20038;-76
2021/06/29 10:24:08;;;;;;;2.05;0.80;;;;;;;;;;4990723;28;20046;-76
2021/06/29 10:26:38;;;;;;;6.38;1.02;;;;;;;;;;4990316;28;20412;-77
2021/06/29 10:29:06;;;;;;;19.45;2.05;;;;;;;;;;4990069;28;20019;-77
2021/06/29 10:31:33;;;;;;;4.35;1.17;;;;;;;;;;4990819;28;20032;-77
2021/06/29 10:34:01;;;;;;;3.85;1.00;;;;;;;;;;4990070;28;20096;-77
2021/06/29 10:36:28;;;;;;;2.28;1.10;;;;;;;;;;4990201;28;20048;-77
2021/06/29 10:38:55;;;;;;;2.28;0.98;;;;;;;;;;4990009;28;20046;-77
2021/06/29 10:41:22;;;;;;;1.98;0.95;;;;;;;;;;4990931;28;20064;-77
2021/06/29 10:43:49;;;;;;;4.63;1.20;;;;;;;;;;4976550;28;20018;-77
2021/06/29 10:46:27;;;;;;;2.05;0.75;;;;;;;;;;4973238;28;20043;-77
2021/06/29 10:48:54;;;;;;;3.95;1.10;;;;;;;;;;4977429;28;20467;-77
2021/06/29 10:51:35;;;;;;;1.98;1.00;;;;;;;;;;4989969;28;20387;-78
2021/06/29 10:54:01;;;;;;;2.70;1.00;;;;;;;;;;4986066;28;20061;-77
2021/06/29 10:56:45;;;;;;;3.08;1.02;;;;;;;;;;4980479;28;20126;-77
2021/06/29 10:59:17;;;;;;;3.38;0.95;;;;;;;;;;4978577;28;20035;-77
2021/06/29 11:01:54;;;;;;;1.92;1.00;;;;;;;;;;4992631;28;20499;-77
2021/06/29 11:04:40;;;;;;;1.60;0.80;;;;;;;;;;4993460;28;20394;-77
2021/06/29 11:07:26;;;;;;;2.25;1.10;;;;;;;;;;4974141;28;20034;-77
2021/06/29 11:09:59;;;;;;;2.45;1.10;;;;;;;;;;4988714;28;20034;-77
2021/06/29 11:12:26;;;;;;;1.75;0.80;;;;;;;;;;4993518;28;20438;-77
2021/06/29 11:14:53;;;;;;;1.85;0.82;;;;;;;;;;4975942;28;20027;-77
2021/06/29 11:17:26;;;;;;;1.77;0.90;;;;;;;;;;4993544;28;20073;-77
2021/06/29 11:20:06;;;;;;;2.05;1.05;;;;;;;;;;4992743;28;20372;-77
2021/06/29 11:22:51;;;;;;;3.53;1.20;;;;;;;;;;4993356;28;20064;-77
2021/06/29 11:25:36;;;;;;;1.92;0.80;;;;;;;;;;4990567;28;20134;-77
2021/06/29 11:28:04;;;;;;;3.53;0.90;;;27.30;88.00;;;;;;4993396;28;20030;-77
2021/06/29 11:31:01;;;;;;;1.25;1.05;;;36.40;68.40;;;;;;4992708;28;20038;-78
2021/06/29 11:33:56;;;;;;;10.00;1.60;;;35.80;68.10;;;;;;4992275;28;20129;-77
2021/06/29 11:36:32;;;;;;;1.23;1.13;;;36.10;68.50;;;;;;4993136;28;20402;-77
2021/06/29 11:39:05;;;;;;;1.95;1.00;;;36.00;65.40;;;;;;4987718;28;20424;-77
2021/06/29 11:41:36;;;;;;;3.95;1.10;;;35.20;65.90;;;;;;4973750;28;20484;-77
2021/06/29 11:44:02;;;;;;;1.83;1.00;;;34.70;66.30;;;;;;4985270;28;20069;-77
2021/06/29 11:46:48;;;;;;;4.28;1.00;;;33.40;66.00;;;;;;4992980;28;20116;-76
2021/06/29 11:49:34;;;;;;;2.53;1.00;;;32.20;69.40;;;;;;4992444;28;20092;-77
2021/06/29 11:52:12;;;;;;;4.35;1.17;;;31.70;71.50;;;;;;5008002;28;20030;-77
2021/06/29 11:54:43;;;;;;;7.82;1.58;;;31.00;73.60;;;;;;4992985;28;20082;-77
2021/06/29 11:57:26;;;;;;;3.63;1.25;;;30.40;76.00;;;;;;4993990;28;20181;-77
2021/06/29 12:00:01;;;;;;;1.20;0.90;;;29.90;77.70;;;;;;4981123;28;20109;-77
2021/06/29 12:02:32;;;;;;;3.22;1.30;;;29.20;79.20;;;;;;4976214;28;20034;-77
2021/06/29 12:05:01;;;;;;;1.48;1.17;;;28.90;79.50;;;;;;4990641;28;20093;-77
2021/06/29 12:07:35;;;;;;;1.83;1.35;;;28.10;81.60;;;;;;4989670;28;20043;-77
2021/06/29 12:10:02;;;;;;;5.00;1.50;;;;;;;;;;4988442;28;20084;-77
2021/06/29 12:12:29;;;;;;;2.95;1.30;;;;;;;;;;4990508;28;20030;-77
2021/06/29 12:15:06;;;;;;;3.80;1.08;;;;;;;;;;4989180;28;20069;-77
2021/06/29 12:17:33;;;;;;;1.95;1.42;;;;;;;;;;4991878;28;20438;-77
2021/06/29 12:20:00;;;;;;;2.28;1.38;;;;;;;;;;4990012;28;20019;-77
2021/06/29 12:22:29;;;;;;;3.25;1.40;;;;;;;;;;4987867;28;20400;-77
2021/06/29 12:24:55;;;;;;;3.95;1.40;;;;;;;;;;4988757;28;20041;-77
2021/06/29 12:27:21;;;;;;;3.72;0.80;;;;;;;;;;5007413;28;20035;-76
2021/06/29 12:29:48;;;;;;;7.45;1.80;;;;;;;;;;4990812;28;20081;-78
2021/06/29 12:32:15;;;;;;;20.50;2.83;;;;;;;;;;4992216;28;20030;-77
2021/06/29 12:34:41;;;;;;;13.38;3.30;;;;;;;;;;4991208;28;20399;-76
2021/06/29 12:37:07;;;;;;;18.92;3.72;;;;;;;;;;4991375;28;20027;-77
2021/06/29 12:39:33;;;;;;;15.50;4.40;;;;;;;;;;4990098;28;20050;-76
2021/06/29 12:41:59;;;;;;;12.98;4.78;;;;;;;;;;4991536;28;20077;-77
2021/06/29 12:44:27;;;;;;;15.10;5.00;;;;;;;;;;4987984;28;20471;-76
2021/06/29 12:46:53;;;;;;;17.50;4.50;;;;;;;;;;4991968;28;20106;-76
2021/06/29 12:49:24;;;;;;;14.88;5.25;;;;;;;;;;4991258;28;20066;-76
2021/06/29 12:51:56;;;;;;;13.70;4.88;;;;;;;;;;4991782;28;20395;-76
2021/06/29 12:54:24;;;;;;;6.43;4.70;;;;;;;;;;4991774;28;20056;-76
2021/06/29 12:56:51;;;;;;;15.25;5.10;;;;;;;;;;4991704;28;20019;-76
2021/06/29 12:59:23;;;;;;;4.18;3.50;;;;;;;;;;4991099;28;20035;-76
2021/06/29 13:01:54;;;;;;;6.30;4.28;;;;;;;;;;4990325;28;20030;-77
2021/06/29 13:04:23;;;;;;;8.07;3.72;;;;;;;;;;4991529;28;20027;-76
2021/06/29 13:07:00;;;;;;;8.63;3.75;;;;;;;;;;4991767;28;20022;-76
2021/06/29 13:09:30;;;;;;;9.77;3.95;;;;;;;;;;4991154;28;20037;-76
2021/06/29 13:11:58;;;;;;;6.13;3.28;;;;;;;;;;4991910;28;20038;-76
2021/06/29 13:14:24;;;;;;;7.70;3.30;;;;;;;;;;4991391;28;20038;-76
2021/06/29 13:17:00;;;;;;;5.47;3.83;;;;;;;;;;4991516;28;20023;-76
2021/06/29 13:19:26;;;;;;;4.57;3.63;;;;;;;;;;4990835;28;20080;-76
2021/06/29 13:21:54;;;;;;;7.53;3.60;;;;;;;;;;4991845;28;20117;-76
2021/06/29 13:24:20;;;;;;;6.57;3.50;;;;;;;;;;4981207;28;20404;-76
2021/06/29 13:26:53;;;;;;;3.63;2.92;;;;;;;;;;4987337;28;20039;-76
2021/06/29 13:29:32;;;;;;;4.88;3.47;;;;;;;;;;4970807;28;20085;-76
2021/06/29 13:31:58;;;;;;;5.75;3.63;;;;;;;;;;4971930;28;20027;-76
2021/06/29 13:34:29;;;;;;;6.18;3.97;;;;;;;;;;4979100;28;20030;-76
2021/06/29 13:36:55;;;;;;;8.85;3.55;;;;;;;;;;4975122;28;20053;-76
2021/06/29 13:39:31;;;;;;;7.13;3.63;;;;;;;;;;4986205;28;20467;-76
2021/06/29 13:41:58;;;;;;;4.20;3.38;;;;;;;;;;4990234;28;20026;-76
2021/06/29 13:44:25;;;;;;;5.53;3.75;;;;;;;;;;4991118;28;20034;-76
2021/06/29 13:47:05;;;;;;;7.72;4.00;;;;;;;;;;4991028;28;20495;-76
2021/06/29 13:49:31;;;;;;;4.95;3.55;;;;;;;;;;4990520;28;20042;-76
2021/06/29 13:52:10;;;;;;;9.57;4.15;;;;;;;;;;4993152;28;20049;-76
2021/06/29 13:54:37;;;;;;;11.60;4.18;;;;;;;;;;4993076;28;20037;-76
2021/06/29 13:57:06;;;;;;;5.82;3.65;;;;;;;;;;4994678;28;20034;-76
2021/06/29 13:59:34;;;;;;;7.20;3.67;;;;;;;;;;4994182;28;20026;-76
2021/06/29 14:02:00;;;;;;;5.47;3.28;;;;;;;;;;4994464;28;20050;-76
2021/06/29 14:04:26;;;;;;;6.00;3.08;;;;;;;;;;4994624;28;20030;-76
2021/06/29 14:07:28;;;;;;;5.03;3.05;;;;;;;;;;4994661;28;20033;-76
2021/06/29 14:09:54;;;;;;;4.63;2.88;;;;;;;;;;4986766;28;20038;-76
2021/06/29 14:12:22;;;;;;;3.67;2.67;;;;;;;;;;4974868;28;20047;-78
2021/06/29 14:14:48;;;;;;;6.28;2.65;;;;;;;;;;4993903;28;20026;-78
2021/06/29 14:17:14;;;;;;;4.53;2.60;;;;;;;;;;4996498;28;20030;-78
2021/06/29 14:19:40;;;;;;;12.05;3.35;;;;;;;;;;4996070;28;20057;-77
2021/06/29 14:22:14;;;;;;;5.18;3.10;;;;;;;;;;4996336;28;20041;-78
2021/06/29 14:24:40;;;;;;;4.53;2.97;;;;;;;;;;4996224;28;20037;-78
2021/06/29 14:27:06;;;;;;;9.50;3.28;;;;;;;;;;5011663;28;20035;-78
2021/06/29 14:29:32;;;;;;;4.82;3.10;;;;;;;;;;4996220;28;20038;-78
2021/06/29 14:31:58;;;;;;;6.30;3.33;;;;;;;;;;4994951;28;20034;-78
2021/06/29 14:34:24;;;;;;;6.60;3.85;;;;;;;;;;4991723;28;20031;-78
2021/06/29 14:36:50;;;;;;;7.10;3.90;;;;;;;;;;4977575;28;20042;-77
2021/06/29 14:39:16;;;;;;;9.85;3.70;;;;;;;;;;5005598;28;20057;-78
2021/06/29 14:41:42;;;;;;;7.40;3.80;;;;;;;;;;4995090;28;20088;-77
2021/06/29 14:44:08;;;;;;;6.25;3.50;;;;;;;;;;4995045;28;20035;-76
2021/06/29 14:46:36;;;;;;;6.25;3.08;;;;;;;;;;4995499;28;20030;-79